Time;durP1;ratioP1;P1;durP2;ratioP2;P2;SDS_P1;SDS_P2;PMS_P1;PMS_P2;Temp;Humidity;BMP_temperature;BMP_pressure;BME280_temperature;BME280_humidity;BME280_pressure;Samples;Min_cycle;Max_cycle;Signal;HPM_P1;HPM_P2
2022/02/21 00:02:13;;;;;;;1.45;0.22;;;;;;;-146.05;100.00;59461.22;5034440;28;20049;-76
2022/02/21 00:04:41;;;;;;;1.42;0.30;;;;;;;-146.05;100.00;59461.22;5034514;28;20052;-76
2022/02/21 00:07:08;;;;;;;0.80;0.35;;;;;;;-146.05;100.00;59461.22;5034019;28;20050;-76
2022/02/21 00:09:36;;;;;;;3.17;0.28;;;;;;;-146.05;100.00;59461.22;5033766;28;20129;-76
2022/02/21 00:12:04;;;;;;;1.63;0.35;;;;;;;-146.05;100.00;59461.22;5034385;28;20068;-76
2022/02/21 00:14:32;;;;;;;0.63;0.40;;;;;;;-146.05;100.00;59461.22;5034319;28;20045;-76
2022/02/21 00:16:59;;;;;;;1.58;0.65;;;;;;;-146.05;100.00;59461.22;5033974;28;20451;-76
2022/02/21 00:19:34;;;;;;;3.72;0.32;;;;;;;-146.05;100.00;59461.22;5033804;28;20092;-76
2022/02/21 00:22:01;;;;;;;2.60;0.73;;;;;;;-146.05;100.00;59461.22;5032624;28;20049;-76
2022/02/21 00:24:29;;;;;;;1.92;0.55;;;;;;;-146.05;100.00;59461.22;5034070;28;20064;-76
2022/02/21 00:26:57;;;;;;;2.05;0.20;;;;;;;-146.05;100.00;59461.22;5033519;28;20045;-76
2022/02/21 00:29:24;;;;;;;1.05;0.30;;;;;;;-146.05;100.00;59461.22;5069925;23;20557;-80
2022/02/21 00:31:52;;;;;;;0.35;0.20;;;;;;;-146.05;100.00;59461.22;5069885;28;20063;-81
2022/02/21 00:34:19;;;;;;;0.98;0.50;;;;;;;-146.05;100.00;59461.22;5065740;28;20053;-81
2022/02/21 00:36:48;;;;;;;0.88;0.30;;;;;;;-146.05;100.00;59461.22;5055765;28;20049;-81
2022/02/21 00:39:16;;;;;;;2.05;0.57;;;;;;;-146.05;100.00;59461.22;5054888;28;20514;-81
2022/02/21 00:41:43;;;;;;;4.80;1.13;;;;;;;-146.05;100.00;59461.22;5067784;28;20061;-80
2022/02/21 00:44:11;;;;;;;2.10;0.45;;;;;;;-146.05;100.00;59461.22;5059835;28;20404;-80
2022/02/21 00:46:38;;;;;;;1.70;0.50;;;;;;;-146.05;100.00;59461.22;5053190;28;20133;-80
2022/02/21 00:49:07;;;;;;;1.13;0.50;;;;;;;-146.05;100.00;59461.22;5053778;28;20048;-80
2022/02/21 00:51:34;;;;;;;3.88;1.13;;;;;;;-146.05;100.00;59461.22;5054343;28;20048;-80
2022/02/21 00:54:03;;;;;;;2.95;0.55;;;;;;;-146.05;100.00;59461.22;5053988;28;20060;-81
2022/02/21 00:56:31;;;;;;;4.07;0.55;;;;;;;-146.05;100.00;59461.22;5053576;28;20057;-80
2022/02/21 00:58:58;;;;;;;3.20;0.50;;;;;;;-146.05;100.00;59461.22;5053565;28;20511;-80
2022/02/21 01:01:26;;;;;;;2.13;0.50;;;;;;;-146.05;100.00;59461.22;5053904;28;20052;-81
2022/02/21 01:03:53;;;;;;;1.65;0.40;;;;;;;-146.05;100.00;59461.22;5054247;28;20056;-80
2022/02/21 01:06:21;;;;;;;4.30;0.57;;;;;;;-146.05;100.00;59461.22;5053219;28;20049;-80
2022/02/21 01:08:48;;;;;;;1.70;0.60;;;;;;;-146.05;100.00;59461.22;5052591;28;20276;-80
2022/02/21 01:11:19;;;;;;;3.42;0.73;;;;;;;-146.05;100.00;59461.22;5051457;28;20289;-80
2022/02/21 01:13:47;;;;;;;3.78;0.80;;;;;;;-146.05;100.00;59461.22;5051571;28;20049;-80
2022/02/21 01:16:15;;;;;;;1.15;0.30;;;;;;;-146.05;100.00;59461.22;5051505;28;20049;-80
2022/02/21 01:18:42;;;;;;;3.65;0.50;;;;;;;-146.05;100.00;59461.22;5051465;28;20052;-80
2022/02/21 01:21:11;;;;;;;4.55;2.00;;;;;;;-146.05;100.00;59461.22;5052210;28;20060;-80
2022/02/21 01:23:40;;;;;;;2.33;0.60;;;;;;;-146.05;100.00;59461.22;5053548;28;20044;-80
2022/02/21 01:26:07;;;;;;;0.93;0.45;;;;;;;-146.05;100.00;59461.22;5052135;28;20501;-80
2022/02/21 01:28:36;;;;;;;3.85;1.30;;;;;;;-146.05;100.00;59461.22;5053031;28;20466;-80
2022/02/21 01:31:04;;;;;;;2.72;0.85;;;;;;;-146.05;100.00;59461.22;5053455;28;20450;-81
2022/02/21 01:33:31;;;;;;;2.42;0.50;;;;;;;-146.05;100.00;59461.22;5053079;28;20085;-81
2022/02/21 01:35:59;;;;;;;3.28;0.55;;;;;;;-146.05;100.00;59461.22;5052934;28;20057;-80
2022/02/21 01:38:27;;;;;;;2.08;0.40;;;;;;;-146.05;100.00;59461.22;5053187;28;20048;-80
2022/02/21 01:40:54;;;;;;;2.15;1.38;;;;;;;-146.05;100.00;59461.22;5053142;28;20060;-80
2022/02/21 01:43:22;;;;;;;0.82;0.30;;;;;;;-146.05;100.00;59461.22;5053204;28;20503;-80
2022/02/21 01:45:51;;;;;;;1.27;0.50;;;;;;;-146.05;100.00;59461.22;5052675;28;20052;-81
2022/02/21 01:48:18;;;;;;;1.63;0.50;;;;;;;-146.05;100.00;59461.22;5052980;28;20056;-80
2022/02/21 01:50:46;;;;;;;1.67;0.40;;;;;;;-146.05;100.00;59461.22;5053108;28;20103;-80
2022/02/21 01:53:14;;;;;;;2.88;0.40;;;;;;;-146.05;100.00;59461.22;5053264;28;20064;-80
2022/02/21 01:55:44;;;;;;;1.92;0.60;;;;;;;-146.05;100.00;59461.22;5053330;28;20068;-80
2022/02/21 01:58:12;;;;;;;2.17;0.50;;;;;;;-146.05;100.00;59461.22;5053509;28;20049;-80
2022/02/21 02:00:39;;;;;;;3.95;0.68;;;;;;;-146.05;100.00;59461.22;5053293;28;20427;-80
2022/02/21 02:03:09;;;;;;;1.05;0.30;;;;;;;-146.05;100.00;59461.22;5052928;28;20055;-80
2022/02/21 02:05:36;;;;;;;1.27;0.30;;;;;;;-146.05;100.00;59461.22;5052405;28;20429;-80
2022/02/21 02:08:05;;;;;;;3.50;0.88;;;;;;;-146.05;100.00;59461.22;5053154;28;20052;-80
2022/02/21 02:10:33;;;;;;;2.17;0.50;;;;;;;-146.05;100.00;59461.22;5053046;28;20404;-80
2022/02/21 02:13:00;;;;;;;2.15;0.93;;;;;;;-146.05;100.00;59461.22;5053370;28;20518;-80
2022/02/21 02:15:28;;;;;;;1.33;0.35;;;;;;;-146.05;100.00;59461.22;5053072;28;20045;-80
2022/02/21 02:17:56;;;;;;;3.42;0.52;;;;;;;-146.05;100.00;59461.22;5052633;28;20053;-80
2022/02/21 02:20:25;;;;;;;1.83;0.43;;;;;;;-146.05;100.00;59461.22;5053381;28;20049;-80
2022/02/21 02:22:54;;;;;;;1.90;0.55;;;;;;;-146.05;100.00;59461.22;5053662;28;20045;-80
2022/02/21 02:25:21;;;;;;;1.90;0.63;;;;;;;-146.05;100.00;59461.22;5052666;28;20057;-80
2022/02/21 02:27:49;;;;;;;0.65;0.32;;;;;;;-146.05;100.00;59461.22;5052064;28;20056;-80
2022/02/21 02:30:16;;;;;;;2.25;0.38;;;;;;;-146.05;100.00;59461.22;5052141;28;20056;-80
2022/02/21 02:32:46;;;;;;;1.52;0.73;;;;;;;-146.05;100.00;59461.22;5054883;28;20045;-80
2022/02/21 02:35:14;;;;;;;2.40;0.50;;;;;;;-146.05;100.00;59461.22;5056427;28;20053;-81
2022/02/21 02:37:41;;;;;;;3.25;0.60;;;;;;;-146.05;100.00;59461.22;5056233;28;20514;-80
2022/02/21 02:40:11;;;;;;;0.52;0.30;;;;;;;-146.05;100.00;59461.22;5056474;28;20049;-80
2022/02/21 02:42:38;;;;;;;2.17;0.77;;;;;;;-146.05;100.00;59461.22;5056286;28;20049;-80
2022/02/21 02:45:07;;;;;;;1.35;0.40;;;;;;;-146.05;100.00;59461.22;5055878;28;20056;-80
2022/02/21 02:47:34;;;;;;;1.48;0.20;;;;;;;-146.05;100.00;59461.22;5056130;28;20056;-80
2022/02/21 02:50:02;;;;;;;0.90;0.30;;;;;;;-146.05;100.00;59461.22;5056647;28;20052;-80
2022/02/21 02:52:29;;;;;;;1.20;0.30;;;;;;;-146.05;100.00;59461.22;5057645;28;20048;-80
2022/02/21 02:54:57;;;;;;;2.45;0.30;;;;;;;-146.05;100.00;59461.22;5056092;28;20068;-80
2022/02/21 02:57:26;;;;;;;1.55;0.20;;;;;;;-146.05;100.00;59461.22;5056261;28;20055;-80
2022/02/21 02:59:54;;;;;;;1.15;0.25;;;;;;;-146.05;100.00;59461.22;5056076;28;20055;-80
2022/02/21 03:02:21;;;;;;;1.80;0.90;;;;;;;-146.05;100.00;59461.22;5056356;28;20052;-80
2022/02/21 03:04:49;;;;;;;1.30;0.30;;;;;;;-146.05;100.00;59461.22;5055720;28;20045;-80
2022/02/21 03:07:16;;;;;;;1.00;0.40;;;;;;;-146.05;100.00;59461.22;5056346;28;20048;-81
2022/02/21 03:09:44;;;;;;;0.93;0.30;;;;;;;-146.05;100.00;59461.22;5057214;28;20057;-80
2022/02/21 03:12:12;;;;;;;1.55;0.43;;;;;;;-146.05;100.00;59461.22;5057110;28;20415;-80
2022/02/21 03:14:41;;;;;;;1.30;0.40;;;;;;;-146.05;100.00;59461.22;5055846;28;20048;-80
2022/02/21 03:17:08;;;;;;;0.73;0.20;;;;;;;-146.05;100.00;59461.22;5055893;28;20057;-80
2022/02/21 03:19:36;;;;;;;0.60;0.22;;;;;;;-146.05;100.00;59461.22;5059700;28;20045;-81
2022/02/21 03:22:03;;;;;;;0.73;0.15;;;;;;;-146.05;100.00;59461.22;5072345;28;20059;-81
2022/02/21 03:24:31;;;;;;;1.30;0.68;;;;;;;-146.05;100.00;59461.22;5066852;28;20049;-81
2022/02/21 03:26:59;;;;;;;1.05;0.20;;;;;;;-146.05;100.00;59461.22;5055916;28;20049;-80
2022/02/21 03:29:26;;;;;;;0.20;0.10;;;;;;;-146.05;100.00;59461.22;5057267;28;20045;-80
2022/02/21 03:31:55;;;;;;;0.88;0.32;;;;;;;-146.05;100.00;59461.22;5076016;28;20063;-80
2022/02/21 03:34:24;;;;;;;0.52;0.40;;;;;;;-146.05;100.00;59461.22;5074427;28;20053;-81
2022/02/21 03:36:52;;;;;;;0.47;0.20;;;;;;;-146.05;100.00;59461.22;5072737;28;20131;-81
2022/02/21 03:39:20;;;;;;;0.43;0.30;;;;;;;-146.05;100.00;59461.22;5068467;28;20049;-80
2022/02/21 03:41:47;;;;;;;1.75;0.32;;;;;;;-146.05;100.00;59461.22;5069994;28;20045;-81
2022/02/21 03:44:15;;;;;;;0.50;0.10;;;;;;;-146.05;100.00;59461.22;5068590;28;20059;-81
2022/02/21 03:46:43;;;;;;;0.40;0.20;;;;;;;-146.05;100.00;59461.22;5060055;28;20503;-81
2022/02/21 03:49:12;;;;;;;0.80;0.15;;;;;;;-146.05;100.00;59461.22;5056008;28;20055;-80
2022/02/21 03:51:40;;;;;;;1.17;0.20;;;;;;;-146.05;100.00;59461.22;5056057;28;20522;-80
2022/02/21 03:54:08;;;;;;;0.25;0.10;;;;;;;-146.05;100.00;59461.22;5055354;28;20396;-80
2022/02/21 03:56:37;;;;;;;1.63;0.20;;;;;;;-146.05;100.00;59461.22;5054440;28;20057;-80
2022/02/21 03:59:04;;;;;;;0.55;0.17;;;;;;;-146.05;100.00;59461.22;5054651;28;20088;-80
2022/02/21 04:01:32;;;;;;;0.95;0.20;;;;;;;-146.05;100.00;59461.22;5054355;28;20045;-80
2022/02/21 04:03:59;;;;;;;0.90;0.20;;;;;;;-146.05;100.00;59461.22;5054358;28;20055;-80
2022/02/21 04:06:28;;;;;;;1.65;0.20;;;;;;;-146.05;100.00;59461.22;5054071;28;20053;-80
2022/02/21 04:08:56;;;;;;;0.82;0.20;;;;;;;-146.05;100.00;59461.22;5054079;28;20053;-80
2022/02/21 04:11:23;;;;;;;1.73;0.20;;;;;;;-146.05;100.00;59461.22;5054476;28;20049;-80
2022/02/21 04:13:51;;;;;;;1.55;0.30;;;;;;;-146.05;100.00;59461.22;5054333;28;20057;-80
2022/02/21 04:16:19;;;;;;;3.13;0.22;;;;;;;-146.05;100.00;59461.22;5053852;28;20060;-80
2022/02/21 04:18:46;;;;;;;0.45;0.10;;;;;;;-146.05;100.00;59461.22;5054078;28;20530;-80
2022/02/21 04:21:14;;;;;;;1.45;0.10;;;;;;;-146.05;100.00;59461.22;5053987;28;20052;-80
2022/02/21 04:23:43;;;;;;;0.30;0.05;;;;;;;-146.05;100.00;59461.22;5057122;28;20056;-81
2022/02/21 04:26:11;;;;;;;0.80;0.30;;;;;;;-146.05;100.00;59461.22;5055816;28;20132;-80
2022/02/21 04:28:38;;;;;;;0.60;0.10;;;;;;;-146.05;100.00;59461.22;5054114;28;20434;-80
2022/02/21 04:31:06;;;;;;;1.80;0.50;;;;;;;-146.05;100.00;59461.22;5054245;28;20052;-80
2022/02/21 04:33:33;;;;;;;0.55;0.35;;;;;;;-146.05;100.00;59461.22;5054278;28;20067;-80
2022/02/21 04:36:01;;;;;;;1.95;0.47;;;;;;;-146.05;100.00;59461.22;5053763;28;20063;-80
2022/02/21 04:38:28;;;;;;;0.90;0.20;;;;;;;-146.05;100.00;59461.22;5053950;28;20049;-80
2022/02/21 04:40:57;;;;;;;1.85;0.75;;;;;;;-146.05;100.00;59461.22;5054101;28;20053;-80
2022/02/21 04:43:26;;;;;;;2.05;0.55;;;;;;;-146.05;100.00;59461.22;5053972;28;20494;-80
2022/02/21 04:45:55;;;;;;;0.88;0.30;;;;;;;-146.05;100.00;59461.22;5053373;28;20052;-80
2022/02/21 04:48:23;;;;;;;3.67;0.30;;;;;;;-146.05;100.00;59461.22;5053307;28;20451;-80
2022/02/21 04:50:51;;;;;;;1.35;0.30;;;;;;;-146.05;100.00;59461.22;5053335;28;20525;-80
2022/02/21 04:53:19;;;;;;;2.08;0.50;;;;;;;-146.05;100.00;59461.22;5053803;28;20075;-80
2022/02/21 04:55:47;;;;;;;2.20;0.50;;;;;;;-146.05;100.00;59461.22;5053262;28;20052;-80
2022/02/21 04:58:16;;;;;;;0.60;0.28;;;;;;;-146.05;100.00;59461.22;5053718;28;20055;-81
2022/02/21 05:00:43;;;;;;;1.95;0.40;;;;;;;-146.05;100.00;59461.22;5053578;28;20049;-80
2022/02/21 05:03:11;;;;;;;0.88;0.38;;;;;;;-146.05;100.00;59461.22;5053628;28;20057;-80
2022/02/21 05:05:38;;;;;;;4.32;0.40;;;;;;;-146.05;100.00;59461.22;5053794;28;20051;-80
2022/02/21 05:08:06;;;;;;;1.92;0.52;;;;;;;-146.05;100.00;59461.22;5053043;28;20052;-80
2022/02/21 05:10:34;;;;;;;3.85;0.40;;;;;;;-146.05;100.00;59461.22;5053274;28;20052;-80
2022/02/21 05:13:01;;;;;;;2.13;0.50;;;;;;;-146.05;100.00;59461.22;5053247;28;20056;-80
2022/02/21 05:15:30;;;;;;;1.92;0.82;;;;;;;-146.05;100.00;59461.22;5052953;28;20056;-80
2022/02/21 05:17:58;;;;;;;4.28;1.00;;;;;;;-146.05;100.00;59461.22;5052844;28;20052;-80
2022/02/21 05:20:25;;;;;;;0.60;0.40;;;;;;;-146.05;100.00;59461.22;5053173;28;20048;-80
2022/02/21 05:22:53;;;;;;;2.50;0.80;;;;;;;-146.05;100.00;59461.22;5053264;28;20422;-80
2022/02/21 05:25:20;;;;;;;1.17;0.32;;;;;;;-146.05;100.00;59461.22;5052866;28;20045;-80
2022/02/21 05:27:48;;;;;;;3.30;0.40;;;;;;;-146.05;100.00;59461.22;5052849;28;20056;-80
2022/02/21 05:30:16;;;;;;;2.92;0.60;;;;;;;-146.05;100.00;59461.22;5052945;28;20059;-80
2022/02/21 05:32:45;;;;;;;1.98;0.45;;;;;;;-146.05;100.00;59461.22;5053218;28;20132;-80
2022/02/21 05:35:14;;;;;;;2.33;0.50;;;;;;;-146.05;100.00;59461.22;5053098;28;20049;-80
2022/02/21 05:37:41;;;;;;;1.45;0.30;;;;;;;-146.05;100.00;59461.22;5052333;28;20053;-80
2022/02/21 05:40:10;;;;;;;1.58;0.52;;;;;;;-146.05;100.00;59461.22;5052675;28;20461;-80
2022/02/21 05:42:37;;;;;;;2.35;0.40;;;;;;;-146.05;100.00;59461.22;5052588;28;20041;-80
2022/02/21 05:45:06;;;;;;;2.70;0.52;;;;;;;-146.05;100.00;59461.22;5052858;28;20422;-80
2022/02/21 05:47:34;;;;;;;2.70;0.52;;;;;;;-146.05;100.00;59461.22;5053884;28;20053;-81
2022/02/21 05:50:03;;;;;;;1.45;0.40;;;;;;;-146.05;100.00;59461.22;5054065;28;20053;-80
2022/02/21 05:52:30;;;;;;;12.88;5.90;;;;;;;-146.05;100.00;59461.22;5054323;28;20052;-80
2022/02/21 05:54:58;;;;;;;3.45;1.15;;;;;;;-146.05;100.00;59461.22;5053726;28;20045;-80
2022/02/21 05:57:28;;;;;;;3.00;0.60;;;;;;;-146.05;100.00;59461.22;5053758;28;20048;-80
2022/02/21 05:59:59;;;;;;;2.88;0.50;;;;;;;-146.05;100.00;59461.22;5053750;28;20415;-80
2022/02/21 06:02:26;;;;;;;4.07;0.57;;;;;;;-146.05;100.00;59461.22;5054385;28;20057;-80
2022/02/21 06:04:55;;;;;;;6.05;0.88;;;;;;;-146.05;100.00;59461.22;5054695;28;20049;-80
2022/02/21 06:07:23;;;;;;;2.97;0.60;;;;;;;-146.05;100.00;59461.22;5056529;28;20509;-80
2022/02/21 06:09:51;;;;;;;4.10;0.95;;;;;;;-146.05;100.00;59461.22;5066429;28;20045;-80
2022/02/21 06:12:19;;;;;;;3.40;0.80;;;;;;;-146.05;100.00;59461.22;5073524;28;20055;-81
2022/02/21 06:14:47;;;;;;;2.33;0.50;;;;;;;-146.05;100.00;59461.22;5063569;28;20045;-80
2022/02/21 06:17:15;;;;;;;5.05;0.60;;;;;;;-146.05;100.00;59461.22;5057368;28;20057;-80
2022/02/21 06:19:43;;;;;;;2.63;1.00;;;;;;;-146.05;100.00;59461.22;5063096;28;20053;-80
2022/02/21 06:22:10;;;;;;;2.85;0.80;;;;;;;-146.05;100.00;59461.22;5070807;28;20055;-80
2022/02/21 06:24:39;;;;;;;4.38;1.05;;;;;;;-146.05;100.00;59461.22;5062514;28;20494;-80
2022/02/21 06:30:37;;;;;;;2.63;0.75;;;;;;;-146.05;100.00;59461.22;5011474;22;20049;-87
2022/02/21 06:33:11;;;;;;;1.60;0.32;;;;;;;-146.05;100.00;59461.22;5054472;28;20116;-89
2022/02/21 06:35:46;;;;;;;1.13;0.57;;;;;;;-146.05;100.00;59461.22;5047188;28;20072;-89
2022/02/21 06:38:17;;;;;;;1.88;0.77;;;;;;;-146.05;100.00;59461.22;5045846;28;20060;-85
2022/02/21 06:41:04;;;;;;;3.05;0.90;;;;;;;-146.05;100.00;59461.22;5046580;28;20049;-87
2022/02/21 06:43:38;;;;;;;5.57;0.82;;;;;;;-146.05;100.00;59461.22;5048646;28;20060;-87
2022/02/21 06:46:08;;;;;;;1.83;0.70;;;;;;;-146.05;100.00;59461.22;5048393;28;20073;-88
2022/02/21 06:48:36;;;;;;;2.22;0.68;;;;;;;-146.05;100.00;59461.22;5046260;28;20476;-87
2022/02/21 06:51:12;;;;;;;4.70;1.08;;;;;;;-146.05;100.00;59461.22;5050935;28;20676;-85
2022/02/21 06:53:48;;;;;;;3.55;1.20;;;;;;;-146.05;100.00;59461.22;5049701;28;20053;-88
2022/02/21 06:56:21;;;;;;;3.63;0.80;;;;;;;-146.05;100.00;59461.22;5043639;28;20056;-85
2022/02/21 06:58:49;;;;;;;6.30;1.30;;;;;;;-146.05;100.00;59461.22;5044048;28;20113;-84
2022/02/21 07:01:17;;;;;;;5.10;1.98;;;;;;;-146.05;100.00;59461.22;5042654;28;20065;-88
2022/02/21 07:03:46;;;;;;;3.50;1.10;;;;;;;-146.05;100.00;59461.22;5051725;28;20045;-87
2022/02/21 07:06:14;;;;;;;4.20;1.00;;;;;;;-146.05;100.00;59461.22;5061256;28;20095;-90
2022/02/21 07:08:42;;;;;;;4.03;1.40;;;;;;;-146.05;100.00;59461.22;5047399;28;20109;-83
2022/02/21 07:11:12;;;;;;;5.35;1.10;;;;;;;-146.05;100.00;59461.22;5042461;28;20052;-86
2022/02/21 07:13:44;;;;;;;4.40;1.05;;;;;;;-146.05;100.00;59461.22;5041865;28;20132;-87
2022/02/21 07:16:16;;;;;;;3.85;0.90;;;;;;;-146.05;100.00;59461.22;5044241;28;20052;-85
2022/02/21 07:18:47;;;;;;;9.20;1.40;;;;;;;-146.05;100.00;59461.22;5043014;28;20049;-84
2022/02/21 07:21:14;;;;;;;4.38;1.23;;;;;;;-146.05;100.00;59461.22;5048288;28;20046;-87
2022/02/21 07:23:42;;;;;;;3.70;1.23;;;;;;;-146.05;100.00;59461.22;5048315;28;20055;-89
2022/02/21 07:26:09;;;;;;;4.95;0.88;;;;;;;-146.05;100.00;59461.22;5042855;28;20061;-89
2022/02/21 07:28:38;;;;;;;5.15;1.60;;;;;;;-146.05;100.00;59461.22;5048441;28;20071;-90
2022/02/21 07:31:11;;;;;;;4.53;0.80;;;;;;;-146.05;100.00;59461.22;5050245;28;20140;-92
2022/02/21 07:33:40;;;;;;;3.47;1.20;;;;;;;-146.05;100.00;59461.22;5049477;28;20136;-90
2022/02/21 07:36:08;;;;;;;6.88;1.45;;;;;;;-146.05;100.00;59461.22;5049841;28;20046;-90
2022/02/21 07:38:36;;;;;;;4.88;2.05;;;;;;;-146.05;100.00;59461.22;5045740;28;20141;-91
2022/02/21 07:41:04;;;;;;;7.57;1.48;;;;;;;-146.05;100.00;59461.22;5044340;28;20060;-88
2022/02/21 07:43:32;;;;;;;10.80;2.13;;;;;;;-146.05;100.00;59461.22;5048050;28;20053;-89
2022/02/21 07:46:00;;;;;;;6.70;1.67;;;;;;;-146.05;100.00;59461.22;5048773;28;20060;-91
2022/02/21 07:48:29;;;;;;;9.43;2.03;;;;;;;-146.05;100.00;59461.22;5046384;28;20105;-91
2022/02/21 07:50:56;;;;;;;8.90;2.30;;;;;;;-146.05;100.00;59461.22;5049712;28;20050;-90
2022/02/21 07:53:25;;;;;;;6.15;1.70;;;;;;;-146.05;100.00;59461.22;5043688;28;20140;-89
2022/02/21 07:55:52;;;;;;;2.60;1.15;;;;;;;-146.05;100.00;59461.22;5044761;28;20050;-89
2022/02/21 07:58:20;;;;;;;7.00;1.23;;;;;;;-146.05;100.00;59461.22;5049965;28;20055;-87
2022/02/21 08:00:52;;;;;;;8.23;1.60;;;;;;;-146.05;100.00;59461.22;5057776;28;20080;-89
2022/02/21 08:03:43;;;;;;;3.72;1.13;;;;;;;-146.05;100.00;59461.22;5060332;28;20113;-89
2022/02/21 08:06:12;;;;;;;9.35;2.10;;;;;;;-146.05;100.00;59461.22;5058088;28;20045;-89
2022/02/21 08:08:40;;;;;;;6.70;1.38;;;;;;;-146.05;100.00;59461.22;5043053;28;20076;-90
2022/02/21 08:11:07;;;;;;;4.70;1.35;;;;;;;-146.05;100.00;59461.22;5043015;28;20057;-90
2022/02/21 08:13:35;;;;;;;8.18;1.65;;;;;;;-146.05;100.00;59461.22;5044523;28;20483;-92
2022/02/21 08:16:06;;;;;;;3.13;1.55;;;;;;;-146.05;100.00;59461.22;5042441;28;20060;-86
2022/02/21 08:18:38;;;;;;;5.63;1.40;;;;;;;-146.05;100.00;59461.22;5044741;28;20060;-83
2022/02/21 08:21:08;;;;;;;4.97;1.65;;;;;;;-146.05;100.00;59461.22;5043235;28;20045;-89
2022/02/21 08:23:39;;;;;;;5.47;1.35;;;;;;;-146.05;100.00;59461.22;5048731;28;20065;-90
2022/02/21 08:26:18;;;;;;;8.82;1.73;;;;;;;-146.05;100.00;59461.22;5056734;28;20048;-90
2022/02/21 08:28:47;;;;;;;6.65;1.67;;;;;;;-146.05;100.00;59461.22;5057291;28;20041;-88
2022/02/21 08:31:15;;;;;;;5.68;2.00;;;;;;;-146.05;100.00;59461.22;5044665;28;20053;-89
2022/02/21 08:33:43;;;;;;;12.93;2.92;;;;;;;-146.05;100.00;59461.22;5042893;28;20049;-87
2022/02/21 08:36:14;;;;;;;8.02;1.67;;;;;;;-146.05;100.00;59461.22;5044520;28;20064;-93
2022/02/21 08:38:46;;;;;;;8.82;1.70;;;;;;;-146.05;100.00;59461.22;5045917;28;20050;-90
2022/02/21 08:41:18;;;;;;;7.40;2.15;;;;;;;-146.05;100.00;59461.22;5044046;28;20053;-90
2022/02/21 08:43:50;;;;;;;11.10;1.95;;;;;;;-146.05;100.00;59461.22;5049876;28;20136;-86
2022/02/21 08:46:18;;;;;;;8.05;2.05;;;;;;;-146.05;100.00;59461.22;5043663;28;20117;-87
2022/02/21 08:49:03;;;;;;;6.63;1.80;;;;;;;-146.05;100.00;59461.22;5043064;28;20053;-89
2022/02/21 08:51:34;;;;;;;14.07;3.05;;;;;;;-146.05;100.00;59461.22;5040995;28;20480;-87
2022/02/21 08:54:02;;;;;;;10.38;2.20;;;;;;;-146.05;100.00;59461.22;5041793;28;20057;-82
2022/02/21 08:56:33;;;;;;;13.60;1.92;;;;;;;-146.05;100.00;59461.22;5041489;28;20050;-85
2022/02/21 08:59:01;;;;;;;9.45;1.95;;;;;;;-146.05;100.00;59461.22;5041336;28;20076;-87
2022/02/21 09:01:29;;;;;;;9.50;1.98;;;;;;;-146.05;100.00;59461.22;5041989;28;20049;-82
2022/02/21 09:03:57;;;;;;;7.85;2.03;;;;;;;-146.05;100.00;59461.22;5042480;28;20045;-85
2022/02/21 09:06:26;;;;;;;9.48;1.92;;;;;;;-146.05;100.00;59461.22;5040065;28;20116;-83
2022/02/21 09:08:56;;;;;;;8.43;1.55;;;;;;;-146.05;100.00;59461.22;5039640;28;20049;-84
2022/02/21 09:11:23;;;;;;;10.45;1.90;;;;;;;-146.05;100.00;59461.22;5043342;28;20049;-84
2022/02/21 09:13:51;;;;;;;7.35;1.83;;;;;;;-146.05;100.00;59461.22;5041308;28;20518;-79
2022/02/21 09:16:20;;;;;;;9.60;2.05;;;;;;;-146.05;100.00;59461.22;5040281;28;20049;-82
2022/02/21 09:18:48;;;;;;;7.97;1.55;;;;;;;-146.05;100.00;59461.22;5038934;28;20057;-79
2022/02/21 09:21:15;;;;;;;9.82;2.28;;;;;;;-146.05;100.00;59461.22;5037891;28;20052;-80
2022/02/21 09:23:43;;;;;;;13.18;2.70;;;;;;;-146.05;100.00;59461.22;5038960;28;20059;-86
2022/02/21 09:26:12;;;;;;;8.68;1.45;;;;;;;-146.05;100.00;59461.22;5041642;28;20076;-86
2022/02/21 09:28:40;;;;;;;5.50;1.45;;;;;;;-146.05;100.00;59461.22;5041029;28;20053;-85
2022/02/21 09:31:07;;;;;;;8.77;2.65;;;;;;;-146.05;100.00;59461.22;5039501;28;20049;-86
2022/02/21 09:33:35;;;;;;;6.50;1.80;;;;;;;-146.05;100.00;59461.22;5039541;28;20050;-87
2022/02/21 09:36:03;;;;;;;7.28;1.92;;;;;;;-146.05;100.00;59461.22;5040158;28;20216;-82
2022/02/21 09:38:31;;;;;;;7.50;1.80;;;;;;;-146.05;100.00;59461.22;5039414;28;20053;-88
2022/02/21 09:40:59;;;;;;;8.63;1.92;;;;;;;-146.05;100.00;59461.22;5037533;28;20061;-84
2022/02/21 09:43:29;;;;;;;11.07;1.75;;;;;;;-146.05;100.00;59461.22;5037276;28;20053;-80
2022/02/21 09:45:59;;;;;;;11.85;2.42;;;;;;;-146.05;100.00;59461.22;5038048;28;20056;-85
2022/02/21 09:48:28;;;;;;;8.63;1.70;;;;;;;-146.05;100.00;59461.22;5037244;28;20109;-81
2022/02/21 09:51:00;;;;;;;9.35;1.90;;;;;;;-146.05;100.00;59461.22;5037462;28;20046;-81
2022/02/21 09:53:29;;;;;;;12.20;1.83;;;;;;;-146.05;100.00;59461.22;5037358;28;20076;-83
2022/02/21 09:55:57;;;;;;;10.45;2.05;;;;;;;-146.05;100.00;59461.22;5038810;28;20410;-83
2022/02/21 09:58:26;;;;;;;7.90;1.80;;;;;;;-146.05;100.00;59461.22;5038619;28;20046;-80
2022/02/21 10:01:01;;;;;;;11.77;2.10;;;;;;;-146.05;100.00;59461.22;5037906;28;20060;-81
2022/02/21 10:03:40;;;;;;;9.68;1.98;;;;;;;-146.05;100.00;59461.22;5037244;28;20144;-86
2022/02/21 10:06:15;;;;;;;5.10;1.65;;;;;;;-146.05;100.00;59461.22;5037776;28;20053;-79
2022/02/21 10:09:00;;;;;;;10.35;1.70;;;;;;;-146.05;100.00;59461.22;5037666;28;20427;-79
2022/02/21 10:11:35;;;;;;;8.30;1.55;;;;;;;-146.05;100.00;59461.22;5037988;28;20091;-82
2022/02/21 10:14:05;;;;;;;6.75;1.67;;;;;;;-146.05;100.00;59461.22;5038110;28;20041;-81
2022/02/21 10:16:43;;;;;;;4.57;1.38;;;;;;;-146.05;100.00;59461.22;5036180;28;20511;-82
2022/02/21 10:19:13;;;;;;;7.80;1.60;;;;;;;-146.05;100.00;59461.22;5040276;28;20499;-87
2022/02/21 10:21:59;;;;;;;7.00;1.92;;;;;;;-146.05;100.00;59461.22;5041790;28;20048;-81
2022/02/21 10:24:28;;;;;;;8.27;2.17;;;;;;;-146.05;100.00;59461.22;5041811;28;20049;-88
2022/02/21 10:26:58;;;;;;;7.10;1.52;;;;;;;-146.05;100.00;59461.22;5043511;28;20056;-89
2022/02/21 10:29:25;;;;;;;5.05;1.40;;;;;;;-146.05;100.00;59461.22;5044694;28;20053;-85
2022/02/21 10:32:09;;;;;;;4.90;1.20;;;;;;;-146.05;100.00;59461.22;5042886;28;20053;-80
2022/02/21 10:34:38;;;;;;;7.50;1.50;;;;;;;-146.05;100.00;59461.22;5040757;28;20049;-87
2022/02/21 10:37:07;;;;;;;6.47;1.55;;;;;;;-146.05;100.00;59461.22;5040563;28;20052;-88
2022/02/21 10:39:36;;;;;;;8.38;1.48;;;;;;;-146.05;100.00;59461.22;5038864;28;20057;-81
2022/02/21 10:42:07;;;;;;;6.82;1.60;;;;;;;-146.05;100.00;59461.22;5039222;28;20055;-80
2022/02/21 10:44:36;;;;;;;8.43;1.80;;;;;;;-146.05;100.00;59461.22;5037670;28;20049;-80
2022/02/21 10:47:11;;;;;;;4.28;1.60;;;;;;;-146.05;100.00;59461.22;5038198;28;20626;-84
2022/02/21 10:49:58;;;;;;;5.93;1.30;;;;;;;-146.05;100.00;59461.22;5038668;28;20487;-86
2022/02/21 10:52:29;;;;;;;9.13;2.70;;;;;;;-146.05;100.00;59461.22;5044634;28;20057;-89
2022/02/21 10:55:05;;;;;;;9.13;1.67;;;;;;;-146.05;100.00;59461.22;5054658;28;20400;-83
2022/02/21 10:57:43;;;;;;;7.97;2.95;;;;;;;-146.05;100.00;59461.22;5057004;28;20049;-84
2022/02/21 11:00:13;;;;;;;4.63;1.00;;;;;;;-146.05;100.00;59461.22;5058089;28;20037;-85
2022/02/21 11:02:48;;;;;;;4.80;1.20;;;;;;;-146.05;100.00;59461.22;5051812;28;20113;-84
2022/02/21 11:05:16;;;;;;;8.38;1.63;;;;;;;-146.05;100.00;59461.22;5055758;28;20061;-84
2022/02/21 11:08:08;;;;;;;;;;;;;;;;;;;;;
2022/02/21 11:13:23;;;;;;;7.05;1.38;;;;;;;-146.05;100.00;59461.22;5337255;22;20056;-83
2022/02/21 11:15:59;;;;;;;7.38;1.77;;;;;;;-146.05;100.00;59461.22;5072111;28;20418;-79
2022/02/21 11:18:29;;;;;;;6.05;1.40;;;;;;;-146.05;100.00;59461.22;5062949;28;20052;-85
2022/02/21 11:20:57;;;;;;;5.50;1.38;;;;;;;-146.05;100.00;59461.22;5069285;28;20043;-91
2022/02/21 11:23:27;;;;;;;6.30;1.23;;;;;;;-146.05;100.00;59461.22;5080370;28;20044;-87
2022/02/21 11:25:59;;;;;;;8.50;1.83;;;;;;;-146.05;100.00;59461.22;5079839;28;20076;-89